createdAt,value
2022-09-12T00:00:37.106Z,10.18
2022-09-12T00:03:04.503Z,9.90
2022-09-12T00:05:33.057Z,10.27
2022-09-12T00:08:00.461Z,10.13
2022-09-12T00:10:29.510Z,10.38
2022-09-12T00:12:56.871Z,9.48
2022-09-12T00:15:24.199Z,10.47
2022-09-12T00:17:51.578Z,10.00
2022-09-12T00:20:18.994Z,10.45
2022-09-12T00:22:46.324Z,12.48
2022-09-12T00:25:13.731Z,12.80
2022-09-12T00:27:42.435Z,12.37
2022-09-12T00:30:10.003Z,11.75
2022-09-12T00:32:37.357Z,11.77
2022-09-12T00:35:04.904Z,11.85
2022-09-12T00:37:32.604Z,13.73
2022-09-12T00:39:59.975Z,12.77
2022-09-12T00:42:27.439Z,13.23
2022-09-12T00:44:56.123Z,13.98
2022-09-12T00:47:25.861Z,13.20
2022-09-12T00:49:55.788Z,13.82
2022-09-12T00:52:27.747Z,13.87
2022-09-12T00:54:57.400Z,14.13
2022-09-12T00:57:27.795Z,13.27
2022-09-12T00:59:59.263Z,13.18
2022-09-12T01:02:26.780Z,13.25
2022-09-12T01:04:54.131Z,12.50
2022-09-12T01:07:22.238Z,13.45
2022-09-12T01:09:49.852Z,13.68
2022-09-12T01:12:17.678Z,13.25
2022-09-12T01:14:45.103Z,13.57
2022-09-12T01:17:14.957Z,12.70
2022-09-12T01:19:51.247Z,12.90
2022-09-12T01:22:24.723Z,12.73
2022-09-12T01:24:59.312Z,13.30
2022-09-12T01:27:33.959Z,12.70
2022-09-12T01:30:25.220Z,12.63
2022-09-12T01:33:16.637Z,12.27
2022-09-12T01:35:48.902Z,12.55
2022-09-12T01:38:26.478Z,11.80
2022-09-12T01:40:58.283Z,12.88
2022-09-12T01:43:31.988Z,12.37
2022-09-12T01:46:02.362Z,12.10
2022-09-12T01:48:31.151Z,13.20
2022-09-12T01:51:05.323Z,13.38
2022-09-12T01:53:35.691Z,12.90
2022-09-12T01:56:07.453Z,12.67
2022-09-12T01:58:37.134Z,12.35
2022-09-12T02:01:07.721Z,12.98
2022-09-12T02:03:40.429Z,13.32
2022-09-12T02:06:13.802Z,13.07
2022-09-12T02:08:42.995Z,12.40
2022-09-12T02:11:11.769Z,12.98
2022-09-12T02:13:42.132Z,13.52
2022-09-12T02:16:11.327Z,13.05
2022-09-12T02:18:39.614Z,14.23
2022-09-12T02:21:07.190Z,14.07
2022-09-12T02:23:37.949Z,14.23
2022-09-12T02:26:07.680Z,13.65
2022-09-12T02:28:36.529Z,14.07
2022-09-12T02:31:11.788Z,14.45
2022-09-12T02:33:45.933Z,13.87
2022-09-12T02:36:21.880Z,13.32
2022-09-12T02:38:51.082Z,12.98
2022-09-12T02:41:19.603Z,13.18
2022-09-12T02:43:47.484Z,13.20
2022-09-12T02:46:17.594Z,13.70
2022-09-12T02:48:45.053Z,12.98
2022-09-12T02:51:12.971Z,12.57
2022-09-12T02:53:40.504Z,12.52
2022-09-12T02:56:11.778Z,12.98
2022-09-12T02:58:39.287Z,12.20
2022-09-12T03:01:11.495Z,11.50
2022-09-12T03:03:51.119Z,13.60
2022-09-12T03:06:20.948Z,13.30
2022-09-12T03:09:00.233Z,12.45
2022-09-12T03:11:35.064Z,11.93
2022-09-12T03:14:08.557Z,12.18
2022-09-12T03:16:40.878Z,12.02
2022-09-12T03:19:15.049Z,10.75
2022-09-12T03:21:50.146Z,10.88
2022-09-12T03:24:19.516Z,11.17
2022-09-12T03:26:49.698Z,11.50
2022-09-12T03:29:18.722Z,12.48
2022-09-12T03:31:49.971Z,10.80
2022-09-12T03:34:17.691Z,11.73
2022-09-12T03:36:45.048Z,11.27
2022-09-12T03:39:12.372Z,11.13
2022-09-12T03:41:39.741Z,11.15
2022-09-12T03:44:08.443Z,11.15
2022-09-12T03:46:36.544Z,11.20
2022-09-12T03:49:03.934Z,10.83
2022-09-12T03:51:31.299Z,11.82
2022-09-12T03:53:58.639Z,10.68
2022-09-12T03:56:26.111Z,11.75
2022-09-12T03:58:53.475Z,11.80
2022-09-12T04:01:22.607Z,11.40
2022-09-12T04:03:50.609Z,11.57
2022-09-12T04:06:18.994Z,11.75
2022-09-12T04:08:50.415Z,11.90
2022-09-12T04:11:17.971Z,12.35
2022-09-12T04:13:46.161Z,11.83
2022-09-12T04:16:14.315Z,11.48
2022-09-12T04:18:43.290Z,12.15
2022-09-12T04:21:11.859Z,12.48
2022-09-12T04:23:39.448Z,12.45
2022-09-12T04:26:07.534Z,11.37
2022-09-12T04:28:35.911Z,11.85
2022-09-12T04:31:04.764Z,12.27
2022-09-12T04:33:32.458Z,12.68
2022-09-12T04:36:05.463Z,12.23
2022-09-12T04:38:32.950Z,11.90
2022-09-12T04:41:00.678Z,11.77
2022-09-12T04:43:28.059Z,11.32
2022-09-12T04:45:56.392Z,11.90
2022-09-12T04:48:23.757Z,11.68
2022-09-12T04:50:51.100Z,12.37
2022-09-12T04:53:19.749Z,12.32
2022-09-12T04:55:47.117Z,12.05
2022-09-12T04:58:14.466Z,12.52
2022-09-12T05:00:42.168Z,12.13
2022-09-12T05:03:09.509Z,12.40
2022-09-12T05:05:36.965Z,12.32
2022-09-12T05:08:04.348Z,11.85
2022-09-12T05:10:34.611Z,12.43
2022-09-12T05:13:01.951Z,12.23
2022-09-12T05:15:29.283Z,12.70
2022-09-12T05:17:56.609Z,12.60
2022-09-12T05:20:23.962Z,13.30
2022-09-12T05:22:51.292Z,13.73
2022-09-12T05:25:18.608Z,13.70
2022-09-12T05:27:50.455Z,14.47
2022-09-12T05:30:18.054Z,14.60
2022-09-12T05:32:45.818Z,14.27
2022-09-12T05:35:13.181Z,14.73
2022-09-12T05:37:40.529Z,15.40
2022-09-12T05:40:08.534Z,15.60
2022-09-12T05:42:36.784Z,15.38
2022-09-12T05:45:06.000Z,16.08
2022-09-12T05:47:33.357Z,15.93
2022-09-12T05:50:00.708Z,16.45
2022-09-12T05:52:28.055Z,15.00
2022-09-12T05:54:55.457Z,14.45
2022-09-12T05:57:22.793Z,14.55
2022-09-12T05:59:50.705Z,15.32
2022-09-12T06:02:19.410Z,15.18
2022-09-12T06:04:46.836Z,14.47
2022-09-12T06:07:14.520Z,15.27
2022-09-12T06:09:42.227Z,15.00
2022-09-12T06:12:09.590Z,17.20
2022-09-12T06:14:36.908Z,15.82
2022-09-12T06:17:05.092Z,15.30
2022-09-12T06:19:34.129Z,16.85
2022-09-12T06:22:01.559Z,16.60
2022-09-12T06:24:28.891Z,16.40
2022-09-12T06:26:56.316Z,16.08
2022-09-12T06:29:24.004Z,16.70
2022-09-12T06:31:51.345Z,16.17
2022-09-12T06:34:19.487Z,17.83
2022-09-12T06:36:49.158Z,16.35
2022-09-12T06:39:17.381Z,15.63
2022-09-12T06:41:45.049Z,16.63
2022-09-12T06:44:14.115Z,16.02
2022-09-12T06:46:44.129Z,16.27
2022-09-12T06:49:11.514Z,16.38
2022-09-12T06:51:38.888Z,16.48
2022-09-12T06:54:07.611Z,17.03
2022-09-12T06:56:34.927Z,16.80
2022-09-12T06:59:02.271Z,16.17
2022-09-12T07:01:30.935Z,17.40
2022-09-12T07:03:59.208Z,17.13
2022-09-12T07:06:31.537Z,16.37
2022-09-12T07:08:59.302Z,16.48
2022-09-12T07:11:30.535Z,16.30
2022-09-12T07:13:59.143Z,16.73
2022-09-12T07:16:26.614Z,15.90
2022-09-12T07:18:54.869Z,14.57
2022-09-12T07:21:22.614Z,15.68
2022-09-12T07:23:51.726Z,14.25
2022-09-12T07:26:19.307Z,12.93
2022-09-12T07:28:51.462Z,11.98
2022-09-12T07:31:19.459Z,12.43
2022-09-12T07:33:51.192Z,12.75
2022-09-12T07:36:22.359Z,11.82
2022-09-12T07:38:49.883Z,11.15
2022-09-12T07:41:19.317Z,11.30
2022-09-12T07:43:48.110Z,11.50
2022-09-12T07:46:15.706Z,10.93
2022-09-12T07:48:44.407Z,11.55
2022-09-12T07:51:12.389Z,10.88
2022-09-12T07:53:40.844Z,10.95
2022-09-12T07:56:10.226Z,10.93
2022-09-12T07:58:38.431Z,10.10
2022-09-12T08:01:08.790Z,10.43
2022-09-12T08:03:36.278Z,10.60
2022-09-12T08:06:04.305Z,9.88
2022-09-12T08:08:34.229Z,9.90
2022-09-12T08:11:02.175Z,9.88
2022-09-12T08:13:29.875Z,9.05
2022-09-12T08:16:00.758Z,8.40
2022-09-12T08:18:29.903Z,8.15
2022-09-12T08:20:57.716Z,6.73
2022-09-12T08:23:25.405Z,6.30
2022-09-12T08:25:52.792Z,5.70
2022-09-12T08:28:20.095Z,5.55
2022-09-12T08:30:47.647Z,5.75
2022-09-12T08:33:15.224Z,5.60
2022-09-12T08:35:43.969Z,4.90
2022-09-12T08:38:11.372Z,4.78
2022-09-12T08:40:45.286Z,4.72
2022-09-12T08:43:18.540Z,4.82
2022-09-12T08:45:48.424Z,4.63
2022-09-12T08:48:15.899Z,4.75
2022-09-12T08:50:49.342Z,4.57
2022-09-12T08:53:20.236Z,4.65
2022-09-12T08:55:53.447Z,4.35
2022-09-12T08:58:22.555Z,3.90
2022-09-12T09:00:53.924Z,3.83
2022-09-12T09:03:45.177Z,3.50
2022-09-12T09:06:19.993Z,3.40
2022-09-12T09:08:51.334Z,3.33
2022-09-12T09:11:24.562Z,2.87
2022-09-12T09:14:15.982Z,2.75
2022-09-12T09:16:44.632Z,3.00
2022-09-12T09:19:13.254Z,3.10
2022-09-12T09:21:44.463Z,2.85
2022-09-12T09:24:13.728Z,2.60
2022-09-12T09:26:44.206Z,2.60
2022-09-12T09:29:15.583Z,2.53
2022-09-12T09:31:43.385Z,2.38
2022-09-12T09:34:14.164Z,2.42
2022-09-12T09:36:49.397Z,2.40
2022-09-12T09:39:21.941Z,2.25
2022-09-12T09:41:55.914Z,2.40
2022-09-12T09:44:23.463Z,2.50
2022-09-12T09:46:53.434Z,2.35
2022-09-12T09:49:21.053Z,2.20
2022-09-12T09:51:49.940Z,2.38
2022-09-12T09:54:19.557Z,2.50
2022-09-12T09:56:47.072Z,2.47
2022-09-12T09:59:17.095Z,2.40
2022-09-12T10:01:46.209Z,2.30
2022-09-12T10:04:20.942Z,2.55
2022-09-12T10:06:51.743Z,2.35
2022-09-12T10:09:21.040Z,2.50
2022-09-12T10:11:48.721Z,2.40
2022-09-12T10:14:30.386Z,2.70
2022-09-12T10:16:58.712Z,2.63
2022-09-12T10:19:35.016Z,2.70
2022-09-12T10:22:04.708Z,2.80
2022-09-12T10:24:34.415Z,2.50
2022-09-12T10:27:07.607Z,2.50
2022-09-12T10:29:37.339Z,2.67
2022-09-12T10:32:06.519Z,2.60
2022-09-12T10:34:36.325Z,2.50
2022-09-12T10:37:06.563Z,2.78
2022-09-12T10:39:35.966Z,2.83
2022-09-12T10:42:05.167Z,2.50
2022-09-12T10:44:33.282Z,2.15
2022-09-12T10:47:01.400Z,2.70
2022-09-12T10:49:30.330Z,2.78
2022-09-12T10:51:59.565Z,2.60
2022-09-12T10:54:29.407Z,2.40
2022-09-12T10:57:04.900Z,2.33
2022-09-12T10:59:39.134Z,2.45
2022-09-12T11:02:15.640Z,2.28
2022-09-12T11:04:48.393Z,2.30
2022-09-12T11:07:28.455Z,1.90
2022-09-12T11:10:00.371Z,1.88
2022-09-12T11:12:31.309Z,2.10
2022-09-12T11:15:03.956Z,2.20
2022-09-12T11:17:37.986Z,2.13
2022-09-12T11:20:14.542Z,2.10
2022-09-12T11:22:58.628Z,1.95
2022-09-12T11:25:32.112Z,2.00
2022-09-12T11:28:14.264Z,2.30
2022-09-12T11:30:47.875Z,2.23
2022-09-12T11:33:42.694Z,2.20
2022-09-12T11:36:17.563Z,2.10
2022-09-12T11:38:50.591Z,2.22
2022-09-12T11:41:21.399Z,2.33
2022-09-12T11:43:51.688Z,2.60
2022-09-12T11:46:20.521Z,2.20
2022-09-12T11:48:51.047Z,2.30
2022-09-12T11:51:20.153Z,2.33
2022-09-12T11:53:51.974Z,2.45
2022-09-12T11:56:20.956Z,2.40
2022-09-12T11:58:52.613Z,2.50
2022-09-12T12:01:22.427Z,2.50
2022-09-12T12:03:52.415Z,2.20
2022-09-12T12:06:22.236Z,2.15
2022-09-12T12:08:50.429Z,1.93
2022-09-12T12:11:26.968Z,2.08
2022-09-12T12:13:58.171Z,2.00
2022-09-12T12:16:27.036Z,2.20
2022-09-12T12:18:55.685Z,1.90
2022-09-12T12:21:33.258Z,2.00
2022-09-12T12:24:05.182Z,1.98
2022-09-12T12:26:42.738Z,2.00
2022-09-12T12:29:12.646Z,2.17
2022-09-12T12:31:54.898Z,2.15
2022-09-12T12:34:29.136Z,2.50
2022-09-12T12:36:56.900Z,1.98
2022-09-12T12:39:51.240Z,2.05
2022-09-12T12:42:37.162Z,2.10
2022-09-12T12:45:26.001Z,1.80
2022-09-12T12:47:56.188Z,1.67
2022-09-12T12:50:26.370Z,2.10
2022-09-12T12:52:55.806Z,2.20
2022-09-12T12:55:26.309Z,2.00
2022-09-12T12:57:54.714Z,2.38
2022-09-12T13:00:30.990Z,2.20
2022-09-12T13:03:01.451Z,2.05
2022-09-12T13:05:30.187Z,1.88
2022-09-12T13:07:59.160Z,1.95
2022-09-12T13:10:28.845Z,2.00
2022-09-12T13:12:57.018Z,1.90
2022-09-12T13:15:47.489Z,1.80
2022-09-12T13:18:19.603Z,1.80
2022-09-12T13:20:49.692Z,1.77
2022-09-12T13:23:22.367Z,2.00
2022-09-12T13:25:53.625Z,2.33
2022-09-12T13:28:20.980Z,2.40
2022-09-12T13:30:49.956Z,2.00
2022-09-12T13:33:21.700Z,2.30
2022-09-12T13:36:09.759Z,2.10
2022-09-12T13:38:43.539Z,1.70
2022-09-12T13:41:19.421Z,1.90
2022-09-12T13:43:47.748Z,2.42
2022-09-12T13:46:17.199Z,2.08
2022-09-12T13:48:46.037Z,2.28
2022-09-12T13:51:22.240Z,2.67
2022-09-12T13:53:50.619Z,2.50
2022-09-12T13:56:18.674Z,2.40
2022-09-12T13:58:53.963Z,2.70
2022-09-12T14:01:22.351Z,2.78
2022-09-12T14:04:14.980Z,2.40
2022-09-12T14:06:47.142Z,1.98
2022-09-12T14:09:15.051Z,2.28
2022-09-12T14:11:42.674Z,2.40
2022-09-12T14:14:18.939Z,2.55
2022-09-12T14:16:46.264Z,2.57
2022-09-12T14:19:16.221Z,2.30
2022-09-12T14:21:43.625Z,2.88
2022-09-12T14:24:12.396Z,2.85
2022-09-12T14:26:41.094Z,2.50
2022-09-12T14:29:09.139Z,2.80
2022-09-12T14:31:37.800Z,2.90
2022-09-12T14:34:12.754Z,2.40
2022-09-12T14:36:48.739Z,2.80
2022-09-12T14:39:21.773Z,2.45
2022-09-12T14:41:49.859Z,2.40
2022-09-12T14:44:19.089Z,2.40
2022-09-12T14:46:46.553Z,2.53
2022-09-12T14:49:16.611Z,3.10
2022-09-12T14:51:51.244Z,3.10
2022-09-12T14:54:37.187Z,2.60
2022-09-12T14:57:05.564Z,2.65
2022-09-12T14:59:38.322Z,2.90
2022-09-12T15:02:22.948Z,3.25
2022-09-12T15:04:51.039Z,2.60
2022-09-12T15:07:24.151Z,3.13
2022-09-12T15:09:53.024Z,2.88
2022-09-12T15:12:20.387Z,2.80
2022-09-12T15:14:47.691Z,2.65
2022-09-12T15:17:15.467Z,3.08
2022-09-12T15:19:42.825Z,3.20
2022-09-12T15:22:11.125Z,2.88
2022-09-12T15:24:39.855Z,3.00
2022-09-12T15:27:12.294Z,3.00
2022-09-12T15:29:40.008Z,2.17
2022-09-12T15:32:07.979Z,2.63
2022-09-12T15:34:35.344Z,2.65
2022-09-12T15:37:02.717Z,2.70
2022-09-12T15:39:30.051Z,2.63
2022-09-12T15:41:57.400Z,2.75
2022-09-12T15:44:26.122Z,2.90
2022-09-12T15:46:53.458Z,2.70
2022-09-12T15:49:20.771Z,2.58
2022-09-12T15:51:48.169Z,2.83
2022-09-12T15:54:15.929Z,2.63
2022-09-12T15:56:43.876Z,2.87
2022-09-12T15:59:11.197Z,2.90
2022-09-12T16:01:40.100Z,2.92
2022-09-12T16:04:20.000Z,2.50
2022-09-12T16:06:47.320Z,2.28
2022-09-12T16:09:16.850Z,2.67
2022-09-12T16:11:44.984Z,2.60
2022-09-12T16:14:14.380Z,2.50
2022-09-12T16:16:43.250Z,2.67
2022-09-12T16:19:10.783Z,2.67
2022-09-12T16:21:38.560Z,2.37
2022-09-12T16:24:06.128Z,2.35
2022-09-12T16:26:34.197Z,2.50
2022-09-12T16:29:01.854Z,2.80
2022-09-12T16:31:29.923Z,2.40
2022-09-12T16:33:58.636Z,2.40
2022-09-12T16:36:26.199Z,2.40
2022-09-12T16:38:54.402Z,2.42
2022-09-12T16:41:22.666Z,2.50
2022-09-12T16:43:50.203Z,2.42
2022-09-12T16:46:18.876Z,2.57
2022-09-12T16:48:52.118Z,2.60
2022-09-12T16:51:22.361Z,2.45
2022-09-12T16:53:50.130Z,2.80
2022-09-12T16:56:17.519Z,2.35
2022-09-12T16:58:45.255Z,2.43
2022-09-12T17:01:13.912Z,2.45
2022-09-12T17:03:41.702Z,2.17
2022-09-12T17:06:10.824Z,2.25
2022-09-12T17:08:41.211Z,2.20
2022-09-12T17:11:09.648Z,2.00
2022-09-12T17:14:02.789Z,2.10
2022-09-12T17:16:24.853Z,2.30
2022-09-12T17:18:52.399Z,2.20
2022-09-12T17:21:19.775Z,2.30
2022-09-12T17:23:48.568Z,2.27
2022-09-12T17:26:16.156Z,2.13
2022-09-12T17:28:43.793Z,2.42
2022-09-12T17:31:12.645Z,2.33
2022-09-12T17:33:40.429Z,2.33
2022-09-12T17:36:09.187Z,2.35
2022-09-12T17:38:37.928Z,2.60
2022-09-12T17:41:08.267Z,2.33
2022-09-12T17:43:35.850Z,2.50
2022-09-12T17:46:03.412Z,2.63
2022-09-12T17:48:30.855Z,2.90
2022-09-12T17:50:59.198Z,2.70
2022-09-12T17:53:27.610Z,2.72
2022-09-12T17:55:55.000Z,2.78
2022-09-12T17:58:23.701Z,2.40
2022-09-12T18:01:08.584Z,2.60
2022-09-12T18:03:36.087Z,2.67
2022-09-12T18:06:03.453Z,2.72
2022-09-12T18:08:30.856Z,2.67
2022-09-12T18:11:04.722Z,2.67
2022-09-12T18:13:34.008Z,2.63
2022-09-12T18:16:03.905Z,3.07
2022-09-12T18:18:31.543Z,2.85
2022-09-12T18:20:58.915Z,3.35
2022-09-12T18:23:26.891Z,2.92
2022-09-12T18:25:57.876Z,2.95
2022-09-12T18:28:25.227Z,3.10
2022-09-12T18:30:54.201Z,3.30
2022-09-12T18:33:24.052Z,3.40
2022-09-12T18:35:51.912Z,3.90
2022-09-12T18:38:19.218Z,5.70
2022-09-12T18:40:46.706Z,5.73
2022-09-12T18:43:14.262Z,6.00
2022-09-12T18:45:41.606Z,5.28
2022-09-12T18:48:10.939Z,4.75
2022-09-12T18:50:38.324Z,4.85
2022-09-12T18:53:05.747Z,3.93
2022-09-12T18:55:33.113Z,4.07
2022-09-12T18:58:00.437Z,4.00
2022-09-12T19:00:27.803Z,3.85
2022-09-12T19:02:55.212Z,3.80
2022-09-12T19:05:23.894Z,3.93
2022-09-12T19:07:51.251Z,4.07
2022-09-12T19:10:19.569Z,4.68
2022-09-12T19:12:46.914Z,3.80
2022-09-12T19:15:14.240Z,3.70
2022-09-12T19:17:41.583Z,3.73
2022-09-12T19:20:09.259Z,4.00
2022-09-12T19:22:37.952Z,4.15
2022-09-12T19:25:05.626Z,3.92
2022-09-12T19:27:33.080Z,3.33
2022-09-12T19:30:00.449Z,3.80
2022-09-12T19:32:28.123Z,3.78
2022-09-12T19:34:55.471Z,3.60
2022-09-12T19:37:22.865Z,3.72
2022-09-12T19:39:51.715Z,3.13
2022-09-12T19:42:19.068Z,3.43
2022-09-12T19:44:46.406Z,3.80
2022-09-12T19:47:13.732Z,3.67
2022-09-12T19:49:41.072Z,4.20
2022-09-12T19:52:08.818Z,4.15
2022-09-12T19:54:36.144Z,3.80
2022-09-12T19:57:05.058Z,4.07
2022-09-12T19:59:32.436Z,4.38
2022-09-12T20:02:00.006Z,4.20
2022-09-12T20:04:27.419Z,4.25
2022-09-12T20:06:54.736Z,4.40
2022-09-12T20:09:22.077Z,4.43
2022-09-12T20:11:49.443Z,4.47
2022-09-12T20:14:18.148Z,4.28
2022-09-12T20:16:45.878Z,4.40
2022-09-12T20:19:13.225Z,4.33
2022-09-12T20:21:40.659Z,4.40
2022-09-12T20:24:09.184Z,4.43
2022-09-12T20:26:37.019Z,4.53
2022-09-12T20:29:05.215Z,4.60
2022-09-12T20:31:34.279Z,4.40
2022-09-12T20:34:01.954Z,4.32
2022-09-12T20:36:29.376Z,4.18
2022-09-12T20:38:57.781Z,4.30
2022-09-12T20:41:25.941Z,4.05
2022-09-12T20:43:54.090Z,4.40
2022-09-12T20:46:22.482Z,5.00
2022-09-12T20:48:51.673Z,4.57
2022-09-12T20:51:19.280Z,5.18
2022-09-12T20:53:46.701Z,5.05
2022-09-12T20:56:14.921Z,4.50
2022-09-12T20:58:44.406Z,4.35
2022-09-12T21:01:12.845Z,4.30
2022-09-12T21:03:40.439Z,4.40
2022-09-12T21:06:09.864Z,4.38
2022-09-12T21:08:37.628Z,4.30
2022-09-12T21:11:05.254Z,4.55
2022-09-12T21:13:32.719Z,4.32
2022-09-12T21:16:00.537Z,4.40
2022-09-12T21:18:27.963Z,4.28
2022-09-12T21:20:55.820Z,4.60
2022-09-12T21:23:25.764Z,4.57
2022-09-12T21:25:53.115Z,4.70
2022-09-12T21:28:20.627Z,4.63
2022-09-12T21:30:48.701Z,5.07
2022-09-12T21:33:16.164Z,4.90
2022-09-12T21:35:43.649Z,5.30
2022-09-12T21:38:11.082Z,5.70
2022-09-12T21:40:39.788Z,4.93
2022-09-12T21:43:11.851Z,5.45
2022-09-12T21:45:39.990Z,5.37
2022-09-12T21:48:07.541Z,5.03
2022-09-12T21:50:34.888Z,5.78
2022-09-12T21:53:02.290Z,6.10
2022-09-12T21:55:29.606Z,5.40
2022-09-12T21:57:58.267Z,5.77
2022-09-12T22:00:25.623Z,5.78
2022-09-12T22:02:53.666Z,5.80
2022-09-12T22:05:22.222Z,5.53
2022-09-12T22:07:49.573Z,5.07
2022-09-12T22:10:16.907Z,5.37
2022-09-12T22:12:46.488Z,5.10
2022-09-12T22:15:39.430Z,5.22
2022-09-12T22:18:02.702Z,5.22
2022-09-12T22:20:30.091Z,5.13
2022-09-12T22:23:15.306Z,4.90
2022-09-12T22:25:42.662Z,5.07
2022-09-12T22:28:09.974Z,4.95
2022-09-12T22:30:38.792Z,4.90
2022-09-12T22:33:06.216Z,5.20
2022-09-12T22:35:33.572Z,5.33
2022-09-12T22:38:00.880Z,5.57
2022-09-12T22:40:28.212Z,4.82
2022-09-12T22:42:55.540Z,5.30
2022-09-12T22:45:22.862Z,4.70
2022-09-12T22:47:51.551Z,5.10
2022-09-12T22:50:18.987Z,4.72
2022-09-12T22:52:46.609Z,5.03
2022-09-12T22:55:14.060Z,5.07
2022-09-12T22:57:41.407Z,4.93
2022-09-12T23:00:10.421Z,5.27
2022-09-12T23:02:38.222Z,5.40
2022-09-12T23:05:07.451Z,5.32
2022-09-12T23:07:34.785Z,5.43
2022-09-12T23:10:02.120Z,5.85
2022-09-12T23:12:29.509Z,5.67
2022-09-12T23:14:56.839Z,5.85
2022-09-12T23:17:24.172Z,5.45
2022-09-12T23:19:51.609Z,5.90
2022-09-12T23:22:20.327Z,5.72
2022-09-12T23:24:47.671Z,5.83
2022-09-12T23:27:15.383Z,5.68
2022-09-12T23:29:42.756Z,5.45
2022-09-12T23:32:10.439Z,5.70
2022-09-12T23:34:37.757Z,5.25
2022-09-12T23:37:05.151Z,5.97
2022-09-12T23:39:34.075Z,5.60
2022-09-12T23:42:01.431Z,6.30
2022-09-12T23:44:28.872Z,6.05
2022-09-12T23:46:56.348Z,5.80
2022-09-12T23:49:24.159Z,6.00
2022-09-12T23:51:51.516Z,6.82
2022-09-12T23:54:18.835Z,6.10
2022-09-12T23:56:47.799Z,6.35
2022-09-12T23:59:15.157Z,5.90
